Time;durP1;ratioP1;P1;durP2;ratioP2;P2;SDS_P1;SDS_P2;PMS_P1;PMS_P2;Temp;Humidity;BMP_temperature;BMP_pressure;BME280_temperature;BME280_humidity;BME280_pressure;Samples;Min_cycle;Max_cycle;Signal;HPM_P1;HPM_P2
2022/07/08 00:02:05;;;;;;;4.93;2.30;;;;;;;;;;4976690;28;20657;-76
2022/07/08 00:04:32;;;;;;;6.20;2.50;;;;;;;;;;4967256;28;20271;-76
2022/07/08 00:06:58;;;;;;;4.60;2.20;;;;;;;;;;4977936;28;20192;-76
2022/07/08 00:09:26;;;;;;;4.80;2.30;;;;;;;;;;4972847;28;20177;-76
2022/07/08 00:11:53;;;;;;;5.30;2.50;;;;;;;;;;4977120;28;20195;-76
2022/07/08 00:14:19;;;;;;;4.23;2.53;;;;;;;;;;4976968;28;20512;-76
2022/07/08 00:16:45;;;;;;;6.27;2.67;;;;;;;;;;4980870;28;20203;-76
2022/07/08 00:19:13;;;;;;;4.93;2.57;;;;;;;;;;4976883;28;20185;-76
2022/07/08 00:21:39;;;;;;;6.23;2.60;;;;;;;;;;4974029;28;20243;-76
2022/07/08 00:24:05;;;;;;;5.17;2.33;;;;;;;;;;4975809;28;20677;-76
2022/07/08 00:26:32;;;;;;;5.50;2.40;;;;;;;;;;4967590;28;20269;-76
2022/07/08 00:28:58;;;;;;;6.40;2.57;;;;;;;;;;4973058;28;20189;-76
2022/07/08 00:31:24;;;;;;;5.17;2.50;;;;;;;;;;4974708;28;20195;-76
2022/07/08 00:33:50;;;;;;;5.27;2.53;;;;;;;;;;4977194;28;20222;-76
2022/07/08 00:36:16;;;;;;;5.43;2.50;;;;;;;;;;4976767;28;20267;-76
2022/07/08 00:38:42;;;;;;;4.97;2.77;;;;;;;;;;4976393;28;20193;-76
2022/07/08 00:41:09;;;;;;;4.20;2.50;;;;;;;;;;4983039;28;20239;-76
2022/07/08 00:43:37;;;;;;;7.73;2.60;;;;;;;;;;4982773;28;20216;-76
2022/07/08 00:46:04;;;;;;;6.60;2.60;;;;;;;;;;4978053;28;20649;-76
2022/07/08 00:48:30;;;;;;;5.40;2.77;;;;;;;;;;4978253;28;20185;-76
2022/07/08 00:50:59;;;;;;;5.53;2.43;;;;;;;;;;4977554;28;20176;-76
2022/07/08 00:53:25;;;;;;;6.13;2.87;;;;;;;;;;4979686;28;20214;-76
2022/07/08 00:55:51;;;;;;;4.37;2.43;;;;;;;;;;4977441;28;20251;-76
2022/07/08 00:58:17;;;;;;;4.57;2.17;;;;;;;;;;4974900;28;20184;-76
2022/07/08 01:00:44;;;;;;;7.37;2.50;;;;;;;;;;4981407;28;20184;-76
2022/07/08 01:03:11;;;;;;;7.30;2.70;;;;;;;;;;4974959;28;20247;-76
2022/07/08 01:05:37;;;;;;;4.93;2.37;;;;;;;;;;4979063;28;20200;-76
2022/07/08 01:08:04;;;;;;;6.97;2.43;;;;;;;;;;4973896;28;20654;-76
2022/07/08 01:10:30;;;;;;;4.40;2.47;;;;;;;;;;4975067;28;20181;-76
2022/07/08 01:12:56;;;;;;;6.73;2.60;;;;;;;;;;4975631;28;20209;-76
2022/07/08 01:15:23;;;;;;;9.27;2.60;;;;;;;;;;4973088;28;20189;-76
2022/07/08 01:17:50;;;;;;;4.97;2.47;;;;;;;;;;4973071;28;20219;-76
2022/07/08 01:20:16;;;;;;;3.93;2.40;;;;;;;;;;4974350;28;20283;-76
2022/07/08 01:22:42;;;;;;;4.90;2.60;;;;;;;;;;4953355;28;20212;-76
2022/07/08 01:25:09;;;;;;;4.87;2.60;;;;;;;;;;4960901;28;20199;-76
2022/07/08 01:27:36;;;;;;;6.63;2.60;;;;;;;;;;4974116;28;20192;-76
2022/07/08 01:30:03;;;;;;;6.70;2.97;;;;;;;;;;4973946;28;20353;-76
2022/07/08 01:32:33;;;;;;;5.47;2.57;;;;;;;;;;4956642;28;20205;-76
2022/07/08 01:34:59;;;;;;;5.77;2.80;;;;;;;;;;4973794;28;20197;-76
2022/07/08 01:37:25;;;;;;;8.90;2.87;;;;;;;;;;4972825;28;20185;-76
2022/07/08 01:39:52;;;;;;;9.47;3.10;;;;;;;;;;4977717;28;20208;-76
2022/07/08 01:42:18;;;;;;;6.67;2.83;;;;;;;;;;4952855;28;20216;-77
2022/07/08 01:44:44;;;;;;;7.27;2.73;;;;;;;;;;4976139;28;20804;-76
2022/07/08 01:47:10;;;;;;;6.40;2.70;;;;;;;;;;4962472;28;20213;-76
2022/07/08 01:49:37;;;;;;;6.77;2.57;;;;;;;;;;4964969;28;20720;-76
2022/07/08 01:52:05;;;;;;;8.53;2.80;;;;;;;;;;4977711;28;20201;-76
2022/07/08 01:54:31;;;;;;;5.47;2.70;;;;;;;;;;4961674;28;20238;-76
2022/07/08 01:57:15;;;;;;;5.53;2.50;;;;;;;;;;4970012;28;20240;-76
2022/07/08 01:59:42;;;;;;;5.17;2.60;;;;;;;;;;4973030;28;20185;-76
2022/07/08 02:02:09;;;;;;;4.03;2.30;;;;;;;;;;4975375;28;20212;-76
2022/07/08 02:04:35;;;;;;;6.17;2.60;;;;;;;;;;4972775;28;20216;-76
2022/07/08 02:07:02;;;;;;;8.67;2.97;;;;;;;;;;4975974;28;20181;-76
2022/07/08 02:09:28;;;;;;;5.73;2.73;;;;;;;;;;4973559;28;20233;-76
2022/07/08 02:14:39;;;;;;;6.23;2.20;;;;;;;;;;4980052;28;20211;-77
2022/07/08 02:17:05;;;;;;;5.43;2.33;;;;;;;;;;4976003;28;22199;-77
2022/07/08 02:19:33;;;;;;;6.77;2.63;;;;;;;;;;4978947;28;20243;-77
2022/07/08 02:21:59;;;;;;;4.27;2.20;;;;;;;;;;4968325;28;20209;-76
2022/07/08 02:24:26;;;;;;;7.67;2.17;;;;;;;;;;4971764;28;20263;-76
2022/07/08 02:26:52;;;;;;;5.23;2.40;;;;;;;;;;4971133;28;20192;-77
2022/07/08 02:29:18;;;;;;;4.00;1.93;;;;;;;;;;4972396;28;20578;-77
2022/07/08 02:31:44;;;;;;;4.17;2.20;;;;;;;;;;4955949;28;20204;-76
2022/07/08 02:34:11;;;;;;;4.53;2.27;;;;;;;;;;4964302;28;20187;-77
2022/07/08 02:36:37;;;;;;;4.67;2.40;;;;;;;;;;4969809;28;20196;-77
2022/07/08 02:39:04;;;;;;;6.20;2.70;;;;;;;;;;4979785;28;20695;-77
2022/07/08 02:41:30;;;;;;;3.07;1.87;;;;;;;;;;4955186;28;20199;-77
2022/07/08 02:43:56;;;;;;;6.80;2.60;;;;;;;;;;4972565;28;20204;-76
2022/07/08 02:46:23;;;;;;;6.63;2.97;;;;;;;;;;4975650;28;20199;-77
2022/07/08 02:48:49;;;;;;;6.23;2.60;;;;;;;;;;4975034;28;20199;-76
2022/07/08 02:51:15;;;;;;;7.30;2.90;;;;;;;;;;4971834;28;20181;-76
2022/07/08 02:53:41;;;;;;;4.60;2.40;;;;;;;;;;4961488;28;20196;-76
2022/07/08 02:56:07;;;;;;;5.27;2.40;;;;;;;;;;4977030;28;20714;-77
2022/07/08 02:58:33;;;;;;;7.10;2.60;;;;;;;;;;4980523;28;20266;-77
2022/07/08 03:00:59;;;;;;;6.27;3.00;;;;;;;;;;4973462;28;20204;-77
2022/07/08 03:03:26;;;;;;;4.93;2.70;;;;;;;;;;4975531;28;20216;-76
2022/07/08 03:05:52;;;;;;;5.43;2.63;;;;;;;;;;4974365;28;20196;-76
2022/07/08 03:08:18;;;;;;;5.23;2.47;;;;;;;;;;4970512;28;20292;-76
2022/07/08 03:10:44;;;;;;;6.73;2.80;;;;;;;;;;4976442;28;20291;-76
2022/07/08 03:13:10;;;;;;;5.77;2.67;;;;;;;;;;4975677;28;20291;-76
2022/07/08 03:15:36;;;;;;;4.47;2.40;;;;;;;;;;4977302;28;20264;-76
2022/07/08 03:18:02;;;;;;;7.23;2.77;;;;;;;;;;4976992;28;20207;-76
2022/07/08 03:20:29;;;;;;;6.83;3.50;;;;;;;;;;4979885;28;20182;-76
2022/07/08 03:22:55;;;;;;;7.30;3.10;;;;;;;;;;4976832;28;20203;-76
2022/07/08 03:25:21;;;;;;;5.33;2.80;;;;;;;;;;4980635;28;20187;-76
2022/07/08 03:27:48;;;;;;;6.57;2.93;;;;;;;;;;4978258;28;20732;-76
2022/07/08 03:30:14;;;;;;;4.00;2.90;;;;;;;;;;4976052;28;20606;-76
2022/07/08 03:32:41;;;;;;;5.27;2.50;;;;;;;;;;4967126;28;20739;-76
2022/07/08 03:35:07;;;;;;;5.37;2.93;;;;;;;;;;4976996;28;20185;-76
2022/07/08 03:37:34;;;;;;;8.30;2.80;;;;;;;;;;4976533;28;20192;-76
2022/07/08 03:41:19;;;;;;;10.10;3.50;;;;;;;;;;4976629;28;20180;-76
2022/07/08 03:42:46;;;;;;;6.77;2.83;;;;;;;;;;4976985;28;21120;-76
2022/07/08 03:45:12;;;;;;;7.57;2.97;;;;;;;;;;4979048;28;20236;-76
2022/07/08 03:47:38;;;;;;;5.70;3.00;;;;;;;;;;4976509;28;20260;-76
2022/07/08 03:50:05;;;;;;;5.20;2.73;;;;;;;;;;4976377;28;20185;-76
2022/07/08 03:52:31;;;;;;;6.20;3.10;;;;;;;;;;4974655;28;20227;-76
2022/07/08 03:54:57;;;;;;;7.27;3.30;;;;;;;;;;4980333;28;20192;-76
2022/07/08 03:57:24;;;;;;;6.20;3.20;;;;;;;;;;4975492;28;20601;-76
2022/07/08 03:59:50;;;;;;;4.13;2.73;;;;;;;;;;4974175;28;20579;-76
2022/07/08 04:02:16;;;;;;;5.93;2.77;;;;;;;;;;4974507;28;20208;-76
2022/07/08 04:04:43;;;;;;;6.67;2.80;;;;;;;;;;4981927;28;20204;-76
2022/07/08 04:07:09;;;;;;;6.53;2.77;;;;;;;;;;4975075;28;20280;-76
2022/07/08 04:09:35;;;;;;;4.77;2.80;;;;;;;;;;4976032;28;20188;-76
2022/07/08 04:12:01;;;;;;;7.23;3.20;;;;;;;;;;4979823;28;20213;-76
2022/07/08 04:14:27;;;;;;;7.80;3.20;;;;;;;;;;4978803;28;20207;-76
2022/07/08 04:16:53;;;;;;;5.33;2.70;;;;;;;;;;4981165;28;20289;-76
2022/07/08 04:19:19;;;;;;;8.03;3.30;;;;;;;;;;4976615;28;20222;-76
2022/07/08 04:21:46;;;;;;;5.73;3.10;;;;;;;;;;4977698;28;20188;-76
2022/07/08 04:24:12;;;;;;;6.83;3.27;;;;;;;;;;4975376;28;20259;-76
2022/07/08 04:26:38;;;;;;;6.40;3.10;;;;;;;;;;4973887;28;20287;-76
2022/07/08 04:29:04;;;;;;;8.50;3.40;;;;;;;;;;4973199;28;20300;-76
2022/07/08 04:31:30;;;;;;;6.80;2.93;;;;;;;;;;4975303;28;20188;-76
2022/07/08 04:33:56;;;;;;;7.30;3.10;;;;;;;;;;4976382;28;20587;-76
2022/07/08 04:36:23;;;;;;;6.57;3.47;;;;;;;;;;4979188;28;20188;-76
2022/07/08 04:38:49;;;;;;;6.67;3.53;;;;;;;;;;4976178;28;21039;-76
2022/07/08 04:41:15;;;;;;;8.20;3.40;;;;;;;;;;4980337;28;20195;-76
2022/07/08 04:43:45;;;;;;;6.83;3.50;;;;;;;;;;4975701;28;20200;-76
2022/07/08 04:46:14;;;;;;;8.20;3.60;;;;;;;;;;4972899;28;20328;-76
2022/07/08 04:48:41;;;;;;;5.37;2.70;;;;;;;;;;4973431;28;20604;-76
2022/07/08 04:51:07;;;;;;;6.33;3.17;;;;;;;;;;4980627;28;20180;-76
2022/07/08 04:53:33;;;;;;;6.93;3.13;;;;;;;;;;4977439;28;20243;-76
2022/07/08 04:56:00;;;;;;;4.77;2.63;;;;;;;;;;4974818;28;20195;-76
2022/07/08 04:58:26;;;;;;;5.17;2.90;;;;;;;;;;4963636;28;20267;-77
2022/07/08 05:00:52;;;;;;;8.13;3.30;;;;;;;;;;4970791;28;20204;-76
2022/07/08 05:03:18;;;;;;;5.33;3.10;;;;;;;;;;4969356;28;20245;-76
2022/07/08 05:05:44;;;;;;;8.63;3.63;;;;;;;;;;4983414;28;20216;-76
2022/07/08 05:08:11;;;;;;;8.40;3.43;;;;;;;;;;4974973;28;20216;-76
2022/07/08 05:10:37;;;;;;;5.57;3.27;;;;;;;;;;4973023;28;20180;-76
2022/07/08 05:13:05;;;;;;;5.57;3.30;;;;;;;;;;4973378;28;20216;-76
2022/07/08 05:15:31;;;;;;;6.40;3.43;;;;;;;;;;4973673;28;20189;-76
2022/07/08 05:17:57;;;;;;;9.50;3.97;;;;;;;;;;4972544;28;20188;-76
2022/07/08 05:20:23;;;;;;;7.40;3.50;;;;;;;;;;4958599;28;20271;-76
2022/07/08 05:22:50;;;;;;;7.57;3.00;;;;;;;;;;4971113;28;20208;-76
2022/07/08 05:25:16;;;;;;;5.57;3.70;;;;;;;;;;4974718;28;20180;-76
2022/07/08 05:27:42;;;;;;;6.17;3.30;;;;;;;;;;4976267;28;20183;-77
2022/07/08 05:30:09;;;;;;;8.70;3.57;;;;;;;;;;4979683;28;20192;-77
2022/07/08 05:32:36;;;;;;;6.40;3.10;;;;;;;;;;4974013;28;20200;-76
2022/07/08 05:35:03;;;;;;;9.40;3.70;;;;;;;;;;4975352;28;20640;-76
2022/07/08 05:37:29;;;;;;;6.97;3.57;;;;;;;;;;4974515;28;20184;-77
2022/07/08 05:39:56;;;;;;;5.77;3.40;;;;;;;;;;4974329;28;20199;-76
2022/07/08 05:42:22;;;;;;;7.50;3.30;;;;;;;;;;4974519;28;20739;-76
2022/07/08 05:44:48;;;;;;;7.93;3.80;;;;;;;;;;4978660;28;20249;-76
2022/07/08 05:47:14;;;;;;;8.23;3.73;;;;;;;;;;4976378;28;20188;-76
2022/07/08 05:49:43;;;;;;;5.67;3.40;;;;;;;;;;4975057;28;20189;-76
2022/07/08 05:52:09;;;;;;;6.63;3.30;;;;;;;;;;4974832;28;20746;-77
2022/07/08 05:54:36;;;;;;;7.47;3.27;;;;;;;;;;4972975;28;20164;-76
2022/07/08 05:57:02;;;;;;;7.70;3.50;;;;;;;;;;4955713;28;20192;-76
2022/07/08 05:59:29;;;;;;;8.17;3.43;;;;;;;;;;4972497;28;20573;-76
2022/07/08 06:01:55;;;;;;;7.03;3.67;;;;;;;;;;4973436;28;20211;-76
2022/07/08 06:04:22;;;;;;;7.10;3.40;;;;;;;;;;4969668;28;20213;-76
2022/07/08 06:06:48;;;;;;;6.13;3.10;;;;;;;;;;4963334;28;20552;-76
2022/07/08 06:09:14;;;;;;;5.70;2.70;;;;;;;;;;4979786;28;20706;-77
2022/07/08 06:11:41;;;;;;;5.00;2.80;;;;;;;;;;4975830;28;20669;-79
2022/07/08 06:14:07;;;;;;;6.70;3.00;;;;;;;;;;4972492;28;20275;-77
2022/07/08 06:16:33;;;;;;;6.80;2.63;;;;;;;;;;4972438;28;20184;-76
2022/07/08 06:18:59;;;;;;;6.73;2.60;;;;;;;;;;4978451;28;20215;-76
2022/07/08 06:21:25;;;;;;;6.57;2.60;;;;;;;;;;4980184;28;20183;-76
2022/07/08 06:23:51;;;;;;;5.50;2.63;;;;;;;;;;4979926;28;20224;-76
2022/07/08 06:26:17;;;;;;;6.43;2.60;;;;;;;;;;4978421;28;20215;-76
2022/07/08 06:28:44;;;;;;;6.00;2.53;;;;;;;;;;4974753;28;20214;-76
2022/07/08 06:31:10;;;;;;;5.20;2.10;;;;;;;;;;4960813;28;20188;-77
2022/07/08 06:33:36;;;;;;;6.47;1.93;;;;;;;;;;4974868;28;20208;-76
2022/07/08 06:36:03;;;;;;;6.80;2.30;;;;;;;;;;4967644;28;20542;-77
2022/07/08 06:38:29;;;;;;;5.87;1.97;;;;;;;;;;4980612;28;20188;-78
2022/07/08 06:40:55;;;;;;;9.60;2.20;;;;;;;;;;4978502;28;20557;-77
2022/07/08 06:43:22;;;;;;;5.93;2.10;;;;;;;;;;4978011;28;20611;-79
2022/07/08 06:45:50;;;;;;;8.77;2.20;;;;;;;;;;4982199;28;20645;-78
2022/07/08 06:48:16;;;;;;;7.00;2.20;;;;;;;;;;4970372;28;20710;-77
2022/07/08 06:50:42;;;;;;;5.27;2.17;;;;;;;;;;4977579;28;20575;-77
2022/07/08 06:53:08;;;;;;;6.03;1.90;;;;;;;;;;4977991;28;20212;-77
2022/07/08 06:55:35;;;;;;;4.60;2.10;;;;;;;;;;4977648;28;20187;-77
2022/07/08 06:58:01;;;;;;;4.97;1.83;;;;;;;;;;4978220;28;20231;-78
2022/07/08 07:00:27;;;;;;;6.57;1.90;;;;;;;;;;4976339;28;20997;-78
2022/07/08 07:02:54;;;;;;;6.87;1.93;;;;;;;;;;4974324;28;20216;-77
2022/07/08 07:05:20;;;;;;;5.73;1.80;;;;;;;;;;4973613;28;20192;-78
2022/07/08 07:07:46;;;;;;;7.83;2.30;;;;;;;;;;4978495;28;20581;-77
2022/07/08 07:10:13;;;;;;;4.60;1.83;;;;;;;;;;4974589;28;20552;-78
2022/07/08 07:12:40;;;;;;;4.83;1.90;;;;;;;;;;4960047;28;20200;-78
2022/07/08 07:15:06;;;;;;;4.83;1.90;;;;;;;;;;4976825;28;20185;-78
2022/07/08 07:17:33;;;;;;;5.10;1.97;;;;;;;;;;4975467;28;20177;-77
2022/07/08 07:19:59;;;;;;;3.13;1.83;;;;;;;;;;4974224;28;20200;-78
2022/07/08 07:22:25;;;;;;;4.40;1.63;;;;;;;;;;4973392;28;20212;-77
2022/07/08 07:24:52;;;;;;;4.93;1.90;;;;;;;;;;4976589;28;20640;-78
2022/07/08 07:27:18;;;;;;;4.37;1.80;;;;;;;;;;4977418;28;20172;-78
2022/07/08 07:29:44;;;;;;;3.60;1.67;;;;;;;;;;4979738;28;20869;-78
2022/07/08 07:32:10;;;;;;;3.30;1.47;;;;;;;;;;4979612;28;20208;-78
2022/07/08 07:34:37;;;;;;;4.93;1.80;;;;;;;;;;4962089;28;20284;-78
2022/07/08 07:37:03;;;;;;;4.30;1.80;;;;;;;;;;4971821;28;20251;-79
2022/07/08 07:39:29;;;;;;;5.93;1.70;;;;;;;;;;4971468;28;20597;-78
2022/07/08 07:41:55;;;;;;;4.70;1.50;;;;;;;;;;4972750;28;20187;-78
2022/07/08 07:44:21;;;;;;;3.73;1.50;;;;;;;;;;4971178;28;20212;-78
2022/07/08 07:46:48;;;;;;;3.93;1.47;;;;;;;;;;4972461;28;20180;-78
2022/07/08 07:49:14;;;;;;;5.00;1.80;;;;;;;;;;4970586;28;20173;-78
2022/07/08 07:51:40;;;;;;;6.03;1.70;;;;;;;;;;4954992;28;20184;-78
2022/07/08 07:54:06;;;;;;;6.63;1.87;;;;;;;;;;4970874;28;20193;-78
2022/07/08 07:56:33;;;;;;;4.23;1.77;;;;;;;;;;4973970;28;20192;-78
2022/07/08 07:59:03;;;;;;;3.67;1.50;;;;;;;;;;4970441;28;20235;-77
2022/07/08 08:01:29;;;;;;;4.20;1.63;;;;;;;;;;4955896;28;20180;-79
2022/07/08 08:03:55;;;;;;;3.90;1.30;;;;;;;;;;4973021;28;20223;-78
2022/07/08 08:06:21;;;;;;;4.83;1.53;;;;;;;;;;4971715;28;20238;-80
2022/07/08 08:08:48;;;;;;;3.63;1.50;;;;;;;;;;4972217;28;20227;-78
2022/07/08 08:11:14;;;;;;;4.07;1.37;;;;;;;;;;4972466;28;20176;-79
2022/07/08 08:13:40;;;;;;;3.23;1.40;;;;;;;;;;4971763;28;20700;-79
2022/07/08 08:16:06;;;;;;;6.80;1.40;;;;;;;;;;4971583;28;20203;-78
2022/07/08 08:18:32;;;;;;;3.23;1.30;;;;;;;;;;4973104;28;20185;-79
2022/07/08 08:20:59;;;;;;;5.40;1.67;;;;;;;;;;4942455;28;20188;-78
2022/07/08 08:23:25;;;;;;;2.33;1.30;;;;;;;;;;4975756;28;20295;-79
2022/07/08 08:25:51;;;;;;;3.67;1.30;;;;;;;;;;4980053;28;20234;-79
2022/07/08 08:28:17;;;;;;;3.07;1.50;;;;;;;;;;4972959;28;20188;-79
2022/07/08 08:30:43;;;;;;;2.87;1.27;;;;;;;;;;4972611;28;20715;-78
2022/07/08 08:33:09;;;;;;;3.33;1.37;;;;;;;;;;4978415;28;20291;-79
2022/07/08 08:35:36;;;;;;;6.20;1.57;;;;;;;;;;4982652;28;20200;-78
2022/07/08 08:38:02;;;;;;;4.30;1.40;;;;;;;;;;4976502;28;20176;-79
2022/07/08 08:40:29;;;;;;;3.67;1.40;;;;;;;;;;4968354;28;20180;-78
2022/07/08 08:42:55;;;;;;;4.20;1.50;;;;;;;;;;4977086;28;20255;-82
2022/07/08 08:45:21;;;;;;;2.70;1.20;;;;;;;;;;4954505;28;20192;-79
2022/07/08 08:47:48;;;;;;;4.23;1.43;;;;;;;;;;4968865;28;20192;-79
2022/07/08 08:53:01;;;;;;;4.27;1.40;;;;;;;;;;4977864;28;20220;-79
2022/07/08 08:55:33;;;;;;;6.30;1.57;;;;;;;;;;4974215;28;20208;-79
2022/07/08 08:58:00;;;;;;;3.13;1.30;;;;;;;;;;4951161;28;20737;-81
2022/07/08 09:00:27;;;;;;;6.33;1.63;;;;;;;;;;4970329;28;20598;-79
2022/07/08 09:02:54;;;;;;;4.63;1.60;;;;;;;;;;4966061;28;20209;-78
2022/07/08 09:05:21;;;;;;;2.63;1.40;;;;;;;;;;4969457;28;20695;-79
2022/07/08 09:07:49;;;;;;;3.77;1.43;;;;;;;;;;4971821;28;20580;-79
2022/07/08 09:10:16;;;;;;;5.33;1.40;;;;;;;;;;4971446;28;20192;-79
2022/07/08 09:12:59;;;;;;;4.27;1.53;;;;;;;;;;4970805;28;20719;-79
2022/07/08 09:15:32;;;;;;;4.10;1.60;;;;;;;;;;4958560;28;20582;-80
2022/07/08 09:18:00;;;;;;;5.20;1.57;;;;;;;;;;4969995;28;20201;-80
2022/07/08 09:20:26;;;;;;;6.17;1.53;;;;;;;;;;4970011;28;20581;-82
2022/07/08 09:22:52;;;;;;;2.93;1.20;;;;;;;;;;4971702;28;20215;-79
2022/07/08 09:25:18;;;;;;;4.30;1.57;;;;;;;;;;4971803;28;20220;-80
2022/07/08 09:27:44;;;;;;;4.47;1.50;;;;;;;;;;4970064;28;20275;-80
2022/07/08 09:30:15;;;;;;;2.23;1.23;;;;;;;;;;4968540;28;20200;-79
2022/07/08 09:32:56;;;;;;;4.37;1.27;;;;;;;;;;4956896;28;20224;-79
2022/07/08 09:35:22;;;;;;;2.27;1.10;;;;;;;;;;4968623;28;20191;-82
2022/07/08 09:37:51;;;;;;;4.43;1.30;;;;;;;;;;4955630;28;20193;-79
2022/07/08 09:40:18;;;;;;;3.50;1.60;;;;;;;;;;4970535;28;20538;-79
2022/07/08 09:42:44;;;;;;;5.07;1.83;;;;;;;;;;4974725;28;20212;-79
2022/07/08 09:45:10;;;;;;;3.43;1.47;;;;;;;;;;4969016;28;20201;-79
2022/07/08 09:47:36;;;;;;;3.13;1.20;;;;;;;;;;4960171;28;20180;-80
2022/07/08 09:50:03;;;;;;;3.40;1.40;;;;;;;;;;4973086;28;20267;-80
2022/07/08 09:52:29;;;;;;;3.77;1.80;;;;;;;;;;4970615;28;20208;-80
2022/07/08 09:55:02;;;;;;;4.50;1.70;;;;;;;;;;4955090;28;20195;-80
2022/07/08 09:57:30;;;;;;;4.07;1.40;;;;;;;;;;4972515;28;20668;-80
2022/07/08 09:59:56;;;;;;;3.07;1.20;;;;;;;;;;4959596;28;20195;-83
2022/07/08 10:02:23;;;;;;;3.73;1.53;;;;;;;;;;4974473;28;20196;-79
2022/07/08 10:04:50;;;;;;;3.37;1.40;;;;;;;;;;4973854;28;20232;-81
2022/07/08 10:07:17;;;;;;;4.07;1.33;;;;;;;;;;4974669;28;20239;-79
2022/07/08 10:09:43;;;;;;;4.53;1.50;;;;;;;;;;4974667;28;22218;-82
2022/07/08 10:12:14;;;;;;;5.23;1.50;;;;;;;;;;4966569;28;20273;-80
2022/07/08 10:14:46;;;;;;;5.13;2.00;;;;;;;;;;4978332;28;20299;-79
2022/07/08 10:17:15;;;;;;;2.40;1.30;;;;;;;;;;4972942;28;20188;-79
2022/07/08 10:19:42;;;;;;;4.60;1.60;;;;;;;;;;4973077;28;20185;-79
2022/07/08 10:22:10;;;;;;;4.57;1.53;;;;;;;;;;4969492;28;20212;-79
2022/07/08 10:24:39;;;;;;;4.20;1.50;;;;;;;;;;4962781;28;20212;-81
2022/07/08 10:27:05;;;;;;;3.93;1.43;;;;;;;;;;4972495;28;20184;-80
2022/07/08 10:29:33;;;;;;;3.27;1.50;;;;;;;;;;4970453;28;20200;-82
2022/07/08 10:32:00;;;;;;;6.37;1.50;;;;;;;;;;4972427;28;20314;-78
2022/07/08 10:34:33;;;;;;;5.97;1.70;;;;;;;;;;4972220;28;20212;-77
2022/07/08 10:37:00;;;;;;;4.30;1.50;;;;;;;;;;4976464;28;20184;-78
2022/07/08 10:39:27;;;;;;;3.90;1.53;;;;;;;;;;4971594;28;20220;-79
2022/07/08 10:42:03;;;;;;;4.03;1.40;;;;;;;;;;4954381;28;20187;-77
2022/07/08 10:44:48;;;;;;;5.10;1.63;;;;;;;;;;4971518;28;20224;-77
2022/07/08 10:47:25;;;;;;;4.50;1.50;;;;;;;;;;4971756;28;20191;-77
2022/07/08 10:49:51;;;;;;;5.77;1.80;;;;;;;;;;4954872;28;20215;-77
2022/07/08 10:52:21;;;;;;;5.87;1.70;;;;;;;;;;4970284;28;20626;-77
2022/07/08 10:54:47;;;;;;;3.97;1.30;;;;;;;;;;4971381;28;20184;-81
2022/07/08 10:57:17;;;;;;;3.23;1.40;;;;;;;;;;4969428;28;20197;-80
2022/07/08 11:00:02;;;;;;;6.23;1.53;;;;;;;;;;4969945;28;20629;-78
2022/07/08 11:02:29;;;;;;;4.63;1.30;;;;;;;;;;4972085;28;20641;-78
2022/07/08 11:04:57;;;;;;;4.63;1.60;;;;;;;;;;4963644;28;20788;-78
2022/07/08 11:07:27;;;;;;;5.70;1.50;;;;;;;;;;4969699;28;20581;-78
2022/07/08 11:09:57;;;;;;;5.70;1.97;;;;;;;;;;4974452;28;20243;-78
2022/07/08 11:12:24;;;;;;;3.73;1.53;;;;;;;;;;4970774;28;20204;-81
2022/07/08 11:14:51;;;;;;;3.27;1.77;;;;;;;;;;4975571;28;20204;-79
2022/07/08 11:17:18;;;;;;;2.90;1.33;;;;;;;;;;4972334;28;20185;-78
2022/07/08 11:19:46;;;;;;;5.13;1.40;;;;;;;;;;4967141;28;20212;-79
2022/07/08 11:22:12;;;;;;;3.30;1.60;;;;;;;;;;4978133;28;20299;-78
2022/07/08 11:24:40;;;;;;;3.67;1.47;;;;;;;;;;4973205;28;20247;-77
2022/07/08 11:27:07;;;;;;;4.53;1.20;;;;;;;;;;4972045;28;20177;-77
2022/07/08 11:29:33;;;;;;;7.50;1.50;;;;;;;;;;4974808;28;20192;-78
2022/07/08 11:32:01;;;;;;;5.37;1.53;;;;;;;;;;4975593;28;20243;-81
2022/07/08 11:34:28;;;;;;;5.00;1.37;;;;;;;;;;4971372;28;20176;-79
2022/07/08 11:36:54;;;;;;;3.97;1.43;;;;;;;;;;4973444;28;20211;-79
2022/07/08 11:39:20;;;;;;;3.57;1.40;;;;;;;;;;4975139;28;20192;-78
2022/07/08 11:41:46;;;;;;;3.20;1.30;;;;;;;;;;4973270;28;20340;-82
2022/07/08 11:44:13;;;;;;;5.30;1.40;;;;;;;;;;4969634;28;20205;-83
2022/07/08 11:46:46;;;;;;;4.47;1.43;;;;;;;;;;4970386;28;20184;-82
2022/07/08 11:49:12;;;;;;;5.33;1.57;;;;;;;;;;4974319;28;20178;-84
2022/07/08 11:51:39;;;;;;;3.03;1.30;;;;;;;;;;4959808;28;20259;-84
2022/07/08 11:54:07;;;;;;;3.87;1.40;;;;;;;;;;4959618;28;20717;-79
2022/07/08 11:56:33;;;;;;;4.23;1.50;;;;;;;;;;4973843;28;20268;-81
2022/07/08 11:59:00;;;;;;;6.07;1.53;;;;;;;;;;4978084;28;20208;-84
2022/07/08 12:01:27;;;;;;;2.80;1.40;;;;;;;;;;4955723;28;20553;-83
2022/07/08 12:03:54;;;;;;;3.90;1.60;;;;;;;;;;4974983;28;20315;-82
2022/07/08 12:06:27;;;;;;;4.10;1.60;;;;;;;;;;4975949;28;20607;-88
2022/07/08 12:08:53;;;;;;;3.50;1.57;;;;;;;;;;4954584;28;20208;-81
2022/07/08 12:11:21;;;;;;;4.27;1.27;;;;;;;;;;4977658;28;20177;-84
2022/07/08 12:13:53;;;;;;;3.23;1.40;;;;;;;;;;4971851;28;20228;-78
2022/07/08 12:16:29;;;;;;;3.60;1.73;;;;;;;;;;4972745;28;20652;-79
2022/07/08 12:18:55;;;;;;;6.23;1.60;;;;;;;;;;4972454;28;20185;-78
2022/07/08 12:21:21;;;;;;;3.57;1.53;;;;;;;;;;4966065;28;20264;-79
2022/07/08 12:23:55;;;;;;;3.10;1.40;;;;;;;;;;4973450;28;20694;-78
2022/07/08 12:26:21;;;;;;;2.47;1.33;;;;;;;;;;4967562;28;20221;-80
2022/07/08 12:28:48;;;;;;;5.73;1.50;;;;;;;;;;4973088;28;20198;-78
2022/07/08 12:31:31;;;;;;;3.33;1.77;;;;;;;;;;4973633;28;20189;-79
2022/07/08 12:34:01;;;;;;;6.57;1.93;;;;;;;;;;4973188;28;20244;-80
2022/07/08 12:36:28;;;;;;;6.03;1.80;;;;;;;;;;4971736;28;20185;-80
2022/07/08 12:38:54;;;;;;;5.13;1.80;;;;;;;;;;4970449;28;20192;-78
2022/07/08 12:41:21;;;;;;;3.60;1.67;;;;;;;;;;4972401;28;20591;-80
2022/07/08 12:43:47;;;;;;;6.17;1.80;;;;;;;;;;4969771;28;20213;-79
2022/07/08 12:46:14;;;;;;;3.07;1.40;;;;;;;;;;4971883;28;20183;-79
2022/07/08 12:48:40;;;;;;;3.40;1.60;;;;;;;;;;4971918;28;20282;-79
2022/07/08 12:51:09;;;;;;;3.97;1.60;;;;;;;;;;4950455;28;20189;-79
2022/07/08 12:53:36;;;;;;;3.13;1.57;;;;;;;;;;4970557;28;20211;-80
2022/07/08 12:56:02;;;;;;;4.40;1.90;;;;;;;;;;4972889;28;20181;-80
2022/07/08 12:58:28;;;;;;;4.73;1.70;;;;;;;;;;4971871;28;20189;-80
2022/07/08 13:00:55;;;;;;;4.67;1.70;;;;;;;;;;4973727;28;20715;-80
2022/07/08 13:03:21;;;;;;;3.83;1.60;;;;;;;;;;4972047;28;20200;-79
2022/07/08 13:05:47;;;;;;;3.03;1.40;;;;;;;;;;4970932;28;20175;-80
2022/07/08 13:08:13;;;;;;;5.80;1.77;;;;;;;;;;4970855;28;20204;-81
2022/07/08 13:10:39;;;;;;;5.10;1.67;;;;;;;;;;4968355;28;20184;-80
2022/07/08 13:13:06;;;;;;;4.27;1.60;;;;;;;;;;4972318;28;20305;-80
2022/07/08 13:15:36;;;;;;;2.97;1.53;;;;;;;;;;4970631;28;20188;-80
2022/07/08 13:18:02;;;;;;;3.00;1.50;;;;;;;;;;4973768;28;20248;-82
2022/07/08 13:20:28;;;;;;;3.07;1.40;;;;;;;;;;4970073;28;20268;-80
2022/07/08 13:22:55;;;;;;;3.23;1.80;;;;;;;;;;4965518;28;20811;-80
2022/07/08 13:25:21;;;;;;;4.10;1.50;;;;;;;;;;4970252;28;20197;-81
2022/07/08 13:27:47;;;;;;;2.77;1.30;;;;;;;;;;4971432;28;20252;-80
2022/07/08 13:30:13;;;;;;;2.97;1.50;;;;;;;;;;4975623;28;20247;-81
2022/07/08 13:32:39;;;;;;;2.57;1.30;;;;;;;;;;4957260;28;20225;-80
2022/07/08 13:35:06;;;;;;;5.30;1.60;;;;;;;;;;4969745;28;20183;-80
2022/07/08 13:37:33;;;;;;;2.70;1.30;;;;;;;;;;4974751;28;20245;-80
2022/07/08 13:40:00;;;;;;;4.10;1.87;;;;;;;;;;4972502;28;20306;-80
2022/07/08 13:42:27;;;;;;;2.70;1.40;;;;;;;;;;4974947;28;20278;-80
2022/07/08 13:44:53;;;;;;;3.23;1.70;;;;;;;;;;4973021;28;20192;-80
2022/07/08 13:47:19;;;;;;;3.13;1.50;;;;;;;;;;4975235;28;20191;-81
2022/07/08 13:49:46;;;;;;;4.47;1.80;;;;;;;;;;4971423;28;20656;-82
2022/07/08 13:52:12;;;;;;;5.53;1.67;;;;;;;;;;4970663;28;20196;-80
2022/07/08 13:54:38;;;;;;;5.07;1.70;;;;;;;;;;4974179;28;20189;-80
2022/07/08 13:57:04;;;;;;;3.00;1.33;;;;;;;;;;4972129;28;20192;-80
2022/07/08 13:59:31;;;;;;;2.83;1.43;;;;;;;;;;4971925;28;20215;-80
2022/07/08 14:01:57;;;;;;;3.20;1.23;;;;;;;;;;4968884;28;20183;-80
2022/07/08 14:04:23;;;;;;;3.07;1.33;;;;;;;;;;4952855;28;20223;-80
2022/07/08 14:06:49;;;;;;;3.93;1.53;;;;;;;;;;4974122;28;20562;-80
2022/07/08 14:09:16;;;;;;;2.27;1.47;;;;;;;;;;4972553;28;20181;-80
2022/07/08 14:11:43;;;;;;;3.93;1.30;;;;;;;;;;4969608;28;20244;-80
2022/07/08 14:14:09;;;;;;;2.93;1.43;;;;;;;;;;4971457;28;20181;-81
2022/07/08 14:16:35;;;;;;;3.07;1.40;;;;;;;;;;4970711;28;20194;-81
2022/07/08 14:19:01;;;;;;;3.67;1.50;;;;;;;;;;4974157;28;20185;-80
2022/07/08 14:21:27;;;;;;;4.80;1.60;;;;;;;;;;4972277;28;20185;-80
2022/07/08 14:23:53;;;;;;;2.53;1.30;;;;;;;;;;4969766;28;20344;-80
2022/07/08 14:26:20;;;;;;;5.10;1.40;;;;;;;;;;4967545;28;20179;-80
2022/07/08 14:28:46;;;;;;;3.70;1.40;;;;;;;;;;4971269;28;20882;-81
2022/07/08 14:31:12;;;;;;;4.97;1.70;;;;;;;;;;4971708;28;20261;-80
2022/07/08 14:33:38;;;;;;;4.20;1.30;;;;;;;;;;4971073;28;20205;-80
2022/07/08 14:36:04;;;;;;;3.10;1.50;;;;;;;;;;4970959;28;20181;-80
2022/07/08 14:38:30;;;;;;;2.63;1.43;;;;;;;;;;4968533;28;20190;-81
2022/07/08 14:40:57;;;;;;;4.83;1.30;;;;;;;;;;4977077;28;20179;-79
2022/07/08 14:43:23;;;;;;;4.27;1.57;;;;;;;;;;4973917;28;20262;-80
2022/07/08 14:45:49;;;;;;;3.30;1.40;;;;;;;;;;4973735;28;20219;-87
2022/07/08 14:48:16;;;;;;;4.30;1.60;;;;;;;;;;4945201;28;20187;-81